Time;durP1;ratioP1;P1;durP2;ratioP2;P2;SDS_P1;SDS_P2;PMS_P1;PMS_P2;Temp;Humidity;BMP_temperature;BMP_pressure;BME280_temperature;BME280_humidity;BME280_pressure;Samples;Min_cycle;Max_cycle;Signal;HPM_P1;HPM_P2
2021/11/16 00:01:01;;;;;;;0.35;0.35;;;8.10;99.90;;;;;;5091348;28;20129;-71
2021/11/16 00:03:45;;;;;;;0.85;0.85;;;8.20;99.90;;;;;;5092728;28;20075;-72
2021/11/16 00:06:30;;;;;;;1.27;1.17;;;8.20;99.90;;;;;;5092346;28;20083;-72
2021/11/16 00:09:14;;;;;;;1.52;1.33;;;8.20;99.90;;;;;;5091763;28;20075;-72
2021/11/16 00:11:59;;;;;;;1.95;1.85;;;8.20;99.90;;;;;;5092459;28;20119;-72
2021/11/16 00:14:44;;;;;;;1.85;1.75;;;8.30;99.90;;;;;;5091651;28;20039;-72
2021/11/16 00:17:28;;;;;;;0.40;0.40;;;8.30;99.90;;;;;;5092423;28;20058;-72
2021/11/16 00:20:14;;;;;;;1.77;1.50;;;8.20;99.90;;;;;;5091764;28;20039;-72
2021/11/16 00:22:58;;;;;;;0.75;0.73;;;8.20;99.90;;;;;;5092217;28;20083;-72
2021/11/16 00:25:46;;;;;;;1.38;1.27;;;8.20;99.90;;;;;;5092553;28;20092;-72
2021/11/16 00:28:31;;;;;;;0.32;0.32;;;8.30;99.90;;;;;;5091473;28;20504;-71
2021/11/16 00:31:15;;;;;;;0.20;0.20;;;8.30;99.90;;;;;;5095786;28;20061;-71
2021/11/16 00:34:01;;;;;;;1.05;0.95;;;8.30;99.90;;;;;;5096788;28;20047;-72
2021/11/16 00:36:46;;;;;;;0.80;0.70;;;8.30;99.90;;;;;;5096362;28;20036;-73
2021/11/16 00:39:30;;;;;;;0.68;0.68;;;8.30;99.90;;;;;;5096457;28;20035;-71
2021/11/16 00:42:14;;;;;;;0.77;0.75;;;8.20;99.90;;;;;;5096598;28;20034;-72
2021/11/16 00:44:59;;;;;;;0.55;0.55;;;8.20;99.90;;;;;;5095787;28;20088;-72
2021/11/16 00:47:44;;;;;;;0.35;0.35;;;8.20;99.90;;;;;;5096083;28;20043;-72
2021/11/16 00:50:29;;;;;;;1.15;1.08;;;8.30;99.90;;;;;;5095403;28;20516;-73
2021/11/16 00:53:13;;;;;;;0.57;0.57;;;8.30;99.90;;;;;;5095252;28;20097;-72
2021/11/16 00:55:59;;;;;;;1.95;1.08;;;8.30;99.90;;;;;;5096410;28;20170;-72
2021/11/16 00:58:43;;;;;;;0.85;0.85;;;8.30;99.90;;;;;;5095501;28;20096;-72
2021/11/16 01:01:28;;;;;;;4.75;2.58;;;8.30;99.90;;;;;;5096040;28;20033;-72
2021/11/16 01:04:17;;;;;;;0.30;0.30;;;8.30;99.90;;;;;;5096223;28;20094;-72
2021/11/16 01:07:03;;;;;;;0.63;0.63;;;8.10;99.90;;;;;;5094821;28;20400;-73
2021/11/16 01:09:48;;;;;;;1.25;0.88;;;8.10;99.90;;;;;;5096148;28;20041;-72
2021/11/16 01:12:32;;;;;;;0.63;0.50;;;8.20;99.90;;;;;;5096189;28;20043;-72
2021/11/16 01:15:18;;;;;;;8.77;1.30;;;8.20;99.90;;;;;;5095886;28;20120;-73
2021/11/16 01:18:07;;;;;;;2.00;1.63;;;8.20;99.90;;;;;;5096304;28;20051;-73
2021/11/16 01:20:51;;;;;;;0.60;0.60;;;8.20;99.90;;;;;;5094951;28;20548;-73
2021/11/16 01:23:36;;;;;;;5.65;2.08;;;8.20;99.90;;;;;;5095169;28;20412;-73
2021/11/16 01:26:20;;;;;;;1.55;1.45;;;8.20;99.90;;;;;;5095470;28;20039;-72
2021/11/16 01:29:06;;;;;;;0.40;0.40;;;8.20;99.90;;;;;;5095711;28;20054;-73
2021/11/16 01:31:54;;;;;;;0.90;0.90;;;8.20;99.90;;;;;;5095628;28;20079;-73
2021/11/16 01:34:46;;;;;;;24.50;2.97;;;8.30;99.90;;;;;;5094487;28;20096;-73
2021/11/16 01:37:32;;;;;;;1.55;1.48;;;8.30;99.90;;;;;;5095355;28;20101;-73
2021/11/16 01:40:18;;;;;;;1.75;0.75;;;8.20;99.90;;;;;;5094752;28;20607;-73
2021/11/16 01:43:07;;;;;;;4.07;2.42;;;8.20;99.90;;;;;;5094588;28;20035;-72
2021/11/16 01:45:51;;;;;;;0.40;0.40;;;8.20;99.90;;;;;;5094385;28;20089;-72
2021/11/16 01:48:37;;;;;;;3.95;1.90;;;8.20;99.90;;;;;;5095268;28;20042;-72
2021/11/16 01:51:27;;;;;;;0.22;0.22;;;8.20;99.90;;;;;;5094395;28;20515;-72
2021/11/16 01:54:11;;;;;;;1.38;1.35;;;8.20;99.90;;;;;;5094998;28;20121;-73
2021/11/16 01:56:56;;;;;;;0.50;0.50;;;8.20;99.90;;;;;;5095217;28;20039;-73
2021/11/16 01:59:40;;;;;;;4.05;1.10;;;8.20;99.90;;;;;;5095095;28;20826;-73
2021/11/16 02:02:25;;;;;;;0.60;0.60;;;8.20;99.90;;;;;;5094371;28;20078;-72
2021/11/16 02:05:10;;;;;;;1.40;1.30;;;8.20;99.90;;;;;;5094063;28;20082;-73
2021/11/16 02:07:55;;;;;;;6.03;1.00;;;8.10;99.90;;;;;;5093633;28;20038;-73
2021/11/16 02:10:43;;;;;;;1.30;1.20;;;8.10;99.90;;;;;;5094668;28;20713;-72
2021/11/16 02:13:28;;;;;;;6.63;1.98;;;8.10;99.90;;;;;;5094753;28;20387;-72
2021/11/16 02:16:13;;;;;;;2.53;2.33;;;8.10;99.90;;;;;;5094516;28;20510;-72
2021/11/16 02:18:59;;;;;;;0.80;0.80;;;8.10;99.90;;;;;;5094813;28;20047;-72
2021/11/16 02:21:45;;;;;;;1.80;1.65;;;8.10;99.90;;;;;;5094338;28;20082;-71
2021/11/16 02:24:29;;;;;;;1.05;1.05;;;8.10;99.90;;;;;;5094400;28;20039;-72
2021/11/16 02:27:13;;;;;;;1.75;1.58;;;8.20;99.90;;;;;;5093409;28;20097;-73
2021/11/16 02:29:58;;;;;;;3.00;0.90;;;8.10;99.90;;;;;;5094584;28;20042;-72
2021/11/16 02:32:46;;;;;;;0.40;0.40;;;8.00;99.90;;;;;;5093254;28;20415;-72
2021/11/16 02:35:31;;;;;;;0.30;0.30;;;8.10;99.90;;;;;;5094229;28;20152;-72
2021/11/16 02:38:17;;;;;;;1.92;1.52;;;8.10;99.90;;;;;;5093624;28;20096;-72
2021/11/16 02:41:02;;;;;;;1.20;0.77;;;8.00;99.90;;;;;;5093339;28;20097;-72
2021/11/16 02:43:47;;;;;;;1.95;1.85;;;8.10;99.90;;;;;;5093985;28;20038;-72
2021/11/16 02:46:32;;;;;;;1.13;0.68;;;8.10;99.90;;;;;;5094015;28;20161;-73
2021/11/16 02:49:17;;;;;;;1.13;1.08;;;8.10;99.90;;;;;;5094215;28;20526;-73
2021/11/16 02:52:01;;;;;;;1.65;1.55;;;8.10;99.90;;;;;;5094409;28;20760;-72
2021/11/16 02:54:46;;;;;;;0.10;0.10;;;8.20;99.90;;;;;;5093985;28;20080;-73
2021/11/16 02:57:30;;;;;;;1.65;1.20;;;8.20;99.90;;;;;;5094163;28;20069;-73
2021/11/16 03:00:17;;;;;;;0.80;0.80;;;8.10;99.90;;;;;;5092988;28;20062;-72
2021/11/16 03:03:02;;;;;;;1.35;1.25;;;8.00;99.90;;;;;;5093849;28;20043;-73
2021/11/16 03:05:47;;;;;;;0.32;0.32;;;8.00;99.90;;;;;;5092830;28;20127;-72
2021/11/16 03:08:31;;;;;;;2.00;1.63;;;8.10;99.90;;;;;;5093472;28;20086;-73
2021/11/16 03:11:16;;;;;;;0.32;0.32;;;8.10;99.90;;;;;;5093808;28;20038;-72
2021/11/16 03:14:04;;;;;;;0.57;0.57;;;8.10;99.90;;;;;;5093667;28;20035;-73
2021/11/16 03:16:48;;;;;;;0.70;0.70;;;8.20;99.90;;;;;;5092850;28;20054;-72
2021/11/16 03:19:34;;;;;;;0.88;0.68;;;8.10;99.90;;;;;;5092227;28;20558;-72
2021/11/16 03:22:22;;;;;;;0.90;0.90;;;8.10;99.90;;;;;;5106767;28;20051;-72
2021/11/16 03:25:07;;;;;;;4.28;2.63;;;8.10;99.90;;;;;;5107147;28;20097;-72
2021/11/16 03:27:57;;;;;;;4.40;2.40;;;8.20;99.90;;;;;;5093236;28;20093;-71
2021/11/16 03:30:43;;;;;;;1.45;1.35;;;8.10;99.90;;;;;;5106689;28;20043;-72
2021/11/16 03:33:28;;;;;;;1.88;1.25;;;8.20;99.90;;;;;;5092118;28;20170;-73
2021/11/16 03:36:13;;;;;;;1.55;1.45;;;8.20;99.90;;;;;;5093423;28;20549;-72
2021/11/16 03:39:00;;;;;;;2.55;2.20;;;8.20;99.90;;;;;;5093217;28;20488;-73
2021/11/16 03:41:46;;;;;;;0.20;0.20;;;8.10;99.90;;;;;;5091816;28;20447;-74
2021/11/16 03:44:32;;;;;;;1.45;1.10;;;8.10;99.90;;;;;;5093027;28;20039;-73
2021/11/16 03:47:19;;;;;;;1.15;1.00;;;8.10;99.90;;;;;;5092998;28;20109;-73
2021/11/16 03:50:09;;;;;;;0.30;0.30;;;8.00;99.90;;;;;;5093058;28;20442;-73
2021/11/16 03:52:57;;;;;;;0.47;0.47;;;8.00;99.90;;;;;;5092961;28;20042;-73
2021/11/16 03:55:44;;;;;;;0.40;0.40;;;8.00;99.90;;;;;;5091866;28;20546;-73
2021/11/16 03:58:28;;;;;;;6.28;1.17;;;8.10;99.90;;;;;;5092351;28;20094;-73
2021/11/16 04:01:15;;;;;;;4.55;2.88;;;8.00;99.90;;;;;;5092768;28;20042;-73
2021/11/16 04:04:01;;;;;;;2.17;1.88;;;8.10;99.90;;;;;;5092812;28;20070;-73
2021/11/16 04:06:46;;;;;;;2.45;0.73;;;8.10;99.90;;;;;;5091470;28;20164;-73
2021/11/16 04:09:30;;;;;;;1.35;1.25;;;8.00;99.90;;;;;;5092662;28;20507;-72
2021/11/16 04:12:14;;;;;;;0.65;0.65;;;8.00;99.90;;;;;;5091853;28;20467;-72
2021/11/16 04:15:00;;;;;;;0.52;0.52;;;8.10;99.90;;;;;;5092554;28;20457;-73
2021/11/16 04:17:45;;;;;;;1.25;1.20;;;8.00;99.90;;;;;;5092999;28;20051;-73
2021/11/16 04:20:38;;;;;;;5.38;2.47;;;8.00;99.90;;;;;;5092513;28;20043;-73
2021/11/16 04:23:24;;;;;;;0.73;0.73;;;8.00;99.90;;;;;;5092334;28;20071;-73
2021/11/16 04:26:09;;;;;;;2.88;2.67;;;7.90;99.90;;;;;;5092459;28;20499;-73
2021/11/16 04:28:54;;;;;;;2.88;2.17;;;7.90;99.90;;;;;;5092792;28;20522;-73
2021/11/16 04:31:38;;;;;;;0.40;0.40;;;7.90;99.90;;;;;;5092312;28;20117;-73
2021/11/16 04:34:23;;;;;;;0.75;0.75;;;7.90;99.90;;;;;;5092937;28;20115;-73
2021/11/16 04:37:08;;;;;;;1.48;1.38;;;7.90;99.90;;;;;;5092561;28;20116;-73
2021/11/16 04:39:52;;;;;;;0.63;0.63;;;7.90;99.90;;;;;;5092583;28;20075;-73
2021/11/16 04:42:38;;;;;;;0.55;0.55;;;7.90;99.90;;;;;;5092343;28;20629;-73
2021/11/16 04:45:24;;;;;;;1.42;1.33;;;7.90;99.90;;;;;;5092417;28;20040;-73
2021/11/16 04:48:26;;;;;;;0.57;0.57;;;7.90;99.90;;;;;;5080131;28;20035;-72
2021/11/16 04:54:41;;;;;;;2.70;1.63;;;7.90;99.90;;;;;;5079369;28;20153;-73
2021/11/16 05:03:32;;;;;;;0.63;0.20;;;7.80;99.90;;;;;;5083042;28;20381;-70
2021/11/16 05:06:16;;;;;;;1.65;1.55;;;7.80;99.90;;;;;;5092124;28;20133;-69
2021/11/16 05:09:00;;;;;;;2.03;1.08;;;7.70;99.90;;;;;;5092207;28;20092;-71
2021/11/16 05:11:45;;;;;;;0.82;0.82;;;7.80;99.90;;;;;;5091858;28;20089;-75
2021/11/16 05:14:30;;;;;;;0.22;0.22;;;7.80;99.90;;;;;;5091998;28;20503;-73
2021/11/16 05:17:14;;;;;;;1.10;1.10;;;7.90;99.90;;;;;;5093092;28;20097;-73
2021/11/16 05:19:58;;;;;;;1.88;1.75;;;7.80;99.90;;;;;;5094945;28;20107;-74
2021/11/16 05:22:45;;;;;;;1.88;1.35;;;7.80;99.90;;;;;;5095421;28;20054;-73
2021/11/16 05:25:31;;;;;;;1.75;1.65;;;7.80;99.90;;;;;;5095800;28;20491;-73
2021/11/16 05:28:15;;;;;;;3.60;2.13;;;7.80;99.90;;;;;;5095210;28;20043;-71
2021/11/16 05:31:00;;;;;;;1.52;1.42;;;7.80;99.90;;;;;;5094674;28;20096;-73
2021/11/16 05:33:48;;;;;;;0.40;0.35;;;7.90;99.90;;;;;;5080666;28;20043;-73
2021/11/16 05:36:32;;;;;;;0.65;0.65;;;7.90;99.90;;;;;;5095438;28;20089;-73
2021/11/16 05:39:16;;;;;;;3.85;2.58;;;7.80;99.90;;;;;;5095532;28;20451;-70
2021/11/16 05:42:02;;;;;;;0.63;0.63;;;7.90;99.90;;;;;;5095074;28;20401;-71
2021/11/16 05:44:47;;;;;;;2.17;1.88;;;7.80;99.90;;;;;;5094310;28;20043;-70
2021/11/16 05:47:32;;;;;;;0.32;0.32;;;7.80;99.90;;;;;;5094181;28;20392;-71
2021/11/16 05:50:16;;;;;;;1.35;1.25;;;7.80;99.90;;;;;;5094220;28;20448;-70
2021/11/16 05:53:00;;;;;;;0.25;0.25;;;7.80;99.90;;;;;;5095229;28;20046;-69
2021/11/16 05:55:47;;;;;;;2.33;2.13;;;8.00;99.90;;;;;;5095051;28;20046;-70
2021/11/16 05:58:32;;;;;;;2.45;2.15;;;7.90;99.90;;;;;;5075016;28;20098;-70
2021/11/16 06:01:16;;;;;;;1.17;1.17;;;7.80;99.90;;;;;;5090022;28;20039;-70
2021/11/16 06:04:01;;;;;;;5.25;1.38;;;7.80;99.90;;;;;;5089182;28;20154;-71
2021/11/16 06:06:45;;;;;;;1.55;1.38;;;7.80;99.90;;;;;;5073454;28;20043;-70
2021/11/16 06:09:31;;;;;;;0.50;0.50;;;7.80;99.90;;;;;;5074679;28;20043;-70
2021/11/16 06:12:15;;;;;;;0.73;0.55;;;7.80;99.90;;;;;;5073430;28;20397;-70
2021/11/16 06:14:59;;;;;;;0.82;0.80;;;7.80;99.90;;;;;;5085260;28;20050;-71
2021/11/16 06:17:44;;;;;;;0.25;0.25;;;7.80;99.90;;;;;;5091498;28;20101;-70
2021/11/16 06:20:32;;;;;;;2.72;2.53;;;7.80;99.90;;;;;;5081574;28;20043;-70
2021/11/16 06:23:16;;;;;;;0.65;0.65;;;7.70;99.90;;;;;;5072853;28;20413;-70
2021/11/16 06:26:00;;;;;;;3.30;2.47;;;7.70;99.90;;;;;;5073396;28;20071;-70
2021/11/16 06:28:46;;;;;;;0.55;0.55;;;7.70;99.90;;;;;;5072923;28;20098;-70
2021/11/16 06:31:31;;;;;;;0.85;0.85;;;7.70;99.90;;;;;;5074037;28;20405;-70
2021/11/16 06:34:16;;;;;;;5.40;2.53;;;7.60;99.90;;;;;;5073183;28;20042;-70
2021/11/16 06:37:01;;;;;;;5.28;3.05;;;7.60;99.90;;;;;;5074241;28;20392;-71
2021/11/16 06:39:45;;;;;;;1.80;1.65;;;7.60;99.90;;;;;;5074020;28;20039;-70
2021/11/16 06:42:30;;;;;;;2.78;2.13;;;7.60;99.90;;;;;;5072776;28;20474;-70
2021/11/16 06:45:15;;;;;;;0.50;0.50;;;7.60;99.90;;;;;;5073090;28;20515;-70
2021/11/16 06:48:01;;;;;;;0.98;0.90;;;7.60;99.90;;;;;;5073797;28;20047;-70
2021/11/16 06:50:48;;;;;;;2.28;1.27;;;7.60;99.90;;;;;;5072622;28;20075;-70
2021/11/16 06:53:35;;;;;;;1.30;1.23;;;7.60;99.90;;;;;;5072820;28;20098;-70
2021/11/16 06:56:26;;;;;;;5.60;2.88;;;7.70;99.90;;;;;;5082593;28;20569;-70
2021/11/16 06:59:10;;;;;;;0.40;0.40;;;7.70;99.90;;;;;;5073648;28;20040;-70
2021/11/16 07:01:55;;;;;;;1.48;1.38;;;7.70;99.90;;;;;;5079925;28;20052;-70
2021/11/16 07:04:44;;;;;;;1.20;1.10;;;7.70;99.90;;;;;;5073808;28;20096;-69
2021/11/16 07:07:28;;;;;;;0.80;0.80;;;7.60;99.90;;;;;;5073383;28;20043;-70
2021/11/16 07:10:19;;;;;;;2.60;2.42;;;7.70;99.90;;;;;;5072451;28;20035;-70
2021/11/16 07:13:08;;;;;;;0.88;0.88;;;7.70;99.90;;;;;;5072065;28;20452;-70
2021/11/16 07:15:53;;;;;;;2.75;1.40;;;7.70;99.90;;;;;;5073276;28;20042;-70
2021/11/16 07:18:52;;;;;;;0.73;0.65;;;7.60;99.90;;;;;;5073288;28;20031;-70
2021/11/16 07:21:51;;;;;;;0.45;0.45;;;7.60;99.90;;;;;;5071902;28;20047;-69
2021/11/16 07:24:46;;;;;;;4.32;2.05;;;7.60;99.90;;;;;;5073288;28;20074;-69
2021/11/16 07:27:36;;;;;;;0.47;0.47;;;7.70;99.90;;;;;;5071721;28;20182;-69
2021/11/16 07:30:28;;;;;;;0.32;0.32;;;7.70;99.90;;;;;;5073003;28;20067;-69
2021/11/16 07:33:15;;;;;;;0.20;0.20;;;7.70;99.90;;;;;;5071895;28;20456;-69
2021/11/16 07:36:08;;;;;;;0.10;0.10;;;7.70;99.90;;;;;;5075076;28;20071;-70
2021/11/16 07:38:52;;;;;;;3.00;1.90;;;7.80;99.90;;;;;;5085060;28;20039;-69
2021/11/16 07:41:37;;;;;;;1.55;1.00;;;7.80;99.90;;;;;;5093239;28;20039;-69
2021/11/16 07:44:21;;;;;;;0.80;0.80;;;7.80;99.90;;;;;;5093181;28;20092;-69
2021/11/16 07:47:06;;;;;;;1.10;0.90;;;7.70;99.90;;;;;;5083922;28;20511;-70
2021/11/16 07:49:50;;;;;;;1.63;1.02;;;7.70;99.90;;;;;;5072664;28;20120;-70
2021/11/16 07:52:35;;;;;;;0.85;0.85;;;7.70;99.90;;;;;;5071975;28;20119;-70
2021/11/16 07:55:27;;;;;;;0.20;0.20;;;7.70;99.90;;;;;;5071709;28;20116;-70
2021/11/16 07:58:13;;;;;;;0.68;0.68;;;7.70;99.90;;;;;;5071773;28;20039;-70
2021/11/16 08:01:02;;;;;;;2.10;1.90;;;7.70;99.90;;;;;;5072364;28;20044;-70
2021/11/16 08:03:59;;;;;;;0.35;0.35;;;7.80;99.90;;;;;;5073761;28;20127;-70
2021/11/16 08:06:55;;;;;;;1.15;1.15;;;7.80;99.90;;;;;;5072154;28;20070;-70
2021/11/16 08:09:52;;;;;;;25.33;3.60;;;7.80;99.90;;;;;;5072400;28;20104;-70
2021/11/16 08:12:41;;;;;;;0.65;0.65;;;7.80;99.90;;;;;;5073303;28;20450;-70
2021/11/16 08:15:25;;;;;;;0.28;0.28;;;7.90;99.90;;;;;;5072563;28;20106;-70
2021/11/16 08:18:14;;;;;;;1.85;1.02;;;7.80;99.90;;;;;;5071098;28;20614;-70
2021/11/16 08:21:01;;;;;;;3.25;1.30;;;7.80;99.90;;;;;;5072351;28;20038;-70
2021/11/16 08:24:04;;;;;;;2.60;2.13;;;7.90;99.90;;;;;;5071880;28;20090;-70
2021/11/16 08:26:52;;;;;;;0.00;0.00;;;7.90;99.90;;;;;;5072111;28;20087;-70
2021/11/16 08:29:42;;;;;;;0.55;0.55;;;7.90;99.90;;;;;;5071277;28;20042;-71
2021/11/16 08:32:34;;;;;;;2.67;2.22;;;8.00;99.90;;;;;;5071411;28;20039;-70
2021/11/16 08:35:24;;;;;;;0.38;0.38;;;8.00;99.90;;;;;;5071100;28;20445;-71
2021/11/16 08:38:12;;;;;;;0.82;0.82;;;7.90;99.90;;;;;;5071700;28;20123;-70
2021/11/16 08:40:58;;;;;;;0.32;0.32;;;7.80;99.90;;;;;;5071134;28;20127;-71
2021/11/16 08:43:43;;;;;;;0.30;0.30;;;7.80;99.90;;;;;;5071911;28;20094;-71
2021/11/16 08:46:32;;;;;;;3.15;1.70;;;7.80;99.90;;;;;;5072146;28;20043;-70
2021/11/16 08:49:30;;;;;;;2.25;2.05;;;7.90;99.90;;;;;;5072518;28;20059;-70
2021/11/16 08:52:16;;;;;;;6.65;2.25;;;8.00;99.90;;;;;;5076843;28;20036;-71
2021/11/16 08:55:12;;;;;;;0.55;0.55;;;8.00;99.90;;;;;;5075763;28;20055;-70
2021/11/16 08:57:58;;;;;;;1.65;1.55;;;7.80;99.90;;;;;;5074729;28;20515;-70
2021/11/16 09:00:57;;;;;;;2.47;1.85;;;7.90;99.90;;;;;;5074927;28;20039;-70
2021/11/16 09:03:47;;;;;;;0.80;0.80;;;7.90;99.90;;;;;;5077775;28;20046;-70
2021/11/16 09:06:36;;;;;;;0.30;0.30;;;8.00;99.90;;;;;;5075908;28;20052;-71
2021/11/16 09:09:22;;;;;;;0.55;0.55;;;8.00;99.90;;;;;;5075882;28;20039;-70
2021/11/16 09:12:08;;;;;;;2.42;2.22;;;7.90;99.90;;;;;;5089066;28;20071;-70
2021/11/16 09:14:55;;;;;;;0.55;0.55;;;7.90;99.90;;;;;;5074577;28;20166;-70
2021/11/16 09:17:40;;;;;;;5.03;2.35;;;8.00;99.90;;;;;;5088727;28;20160;-70
2021/11/16 09:20:26;;;;;;;2.72;2.38;;;8.00;99.90;;;;;;5074479;28;20040;-70
2021/11/16 09:23:49;;;;;;;2.10;1.98;;;8.20;99.90;;;;;;5075286;28;20056;-70
2021/11/16 09:26:46;;;;;;;6.32;1.40;;;8.30;99.90;;;;;;5074605;28;20083;-70
2021/11/16 09:29:32;;;;;;;0.28;0.28;;;8.30;99.90;;;;;;5074234;28;20067;-70
2021/11/16 09:32:29;;;;;;;1.48;1.40;;;8.10;99.90;;;;;;5088479;28;20052;-71
2021/11/16 09:55:37;;;;;;;1.17;1.13;;;8.20;99.90;;;;;;5075065;28;20051;-71
2021/11/16 10:02:59;;;;;;;4.75;1.65;;;8.20;99.90;;;;;;5090697;28;20488;-70
2021/11/16 10:05:51;;;;;;;0.80;0.80;;;8.10;99.90;;;;;;5083875;28;20079;-71
2021/11/16 10:20:40;;;;;;;1.20;1.20;;;8.30;99.90;;;;;;5095410;28;20046;-70
2021/11/16 10:23:37;;;;;;;1.15;1.15;;;8.30;99.90;;;;;;5090848;28;20089;-69
2021/11/16 10:34:01;;;;;;;1.13;1.08;;;8.30;99.90;;;;;;5088427;28;20163;-70
2021/11/16 10:37:01;;;;;;;0.35;0.35;;;8.20;99.90;;;;;;5071054;28;20039;-76
2021/11/16 10:39:46;;;;;;;1.55;1.08;;;8.20;99.90;;;;;;5064214;28;20075;-74
2021/11/16 10:42:36;;;;;;;0.10;0.10;;;8.20;99.90;;;;;;5081245;28;20047;-72
2021/11/16 10:45:24;;;;;;;2.10;0.95;;;8.20;99.90;;;;;;5078075;28;20051;-72
2021/11/16 10:48:12;;;;;;;0.65;0.65;;;8.20;99.90;;;;;;5091163;28;20153;-71
2021/11/16 10:50:56;;;;;;;1.42;1.33;;;8.20;99.90;;;;;;5077207;28;20043;-68
2021/11/16 10:53:49;;;;;;;1.75;1.65;;;8.20;99.90;;;;;;5091767;28;20078;-67
2021/11/16 10:56:37;;;;;;;0.52;0.52;;;8.10;99.90;;;;;;5083811;28;20070;-72
2021/11/16 10:59:30;;;;;;;0.43;0.43;;;8.10;99.90;;;;;;5081230;28;20442;-70
2021/11/16 11:02:19;;;;;;;12.38;1.25;;;8.10;99.90;;;;;;5087216;28;20350;-72
2021/11/16 11:05:04;;;;;;;4.03;2.20;;;8.00;99.90;;;;;;5093661;28;20419;-76
2021/11/16 11:07:48;;;;;;;1.52;1.05;;;8.00;99.90;;;;;;5093061;28;20070;-71
2021/11/16 11:10:46;;;;;;;2.33;1.55;;;8.00;99.90;;;;;;5092537;28;20496;-71
2021/11/16 11:13:33;;;;;;;1.08;0.85;;;8.00;99.90;;;;;;5093638;28;20039;-71
2021/11/16 11:16:19;;;;;;;1.67;1.58;;;8.00;99.90;;;;;;5085801;28;20055;-71
2021/11/16 11:19:16;;;;;;;0.70;0.70;;;7.90;99.90;;;;;;5073074;28;20114;-71
2021/11/16 11:25:07;;;;;;;1.90;1.70;;;7.80;99.90;;;;;;5083307;28;20047;-71
2021/11/16 11:28:09;;;;;;;12.68;4.78;;;7.80;99.90;;;;;;5080084;28;20184;-72
2021/11/16 11:30:53;;;;;;;2.45;2.28;;;7.90;99.90;;;;;;5089854;28;20074;-71
2021/11/16 11:33:49;;;;;;;0.38;0.38;;;7.90;99.90;;;;;;5074615;28;20113;-72
2021/11/16 11:36:34;;;;;;;1.25;1.15;;;7.90;99.90;;;;;;5085220;28;20055;-71
2021/11/16 11:39:23;;;;;;;0.52;0.52;;;7.90;99.90;;;;;;5093052;28;20093;-72
2021/11/16 11:42:13;;;;;;;2.95;2.75;;;7.80;99.90;;;;;;5086199;28;20178;-70
2021/11/16 11:45:18;;;;;;;1.17;1.08;;;7.80;99.90;;;;;;5092030;28;20089;-70
2021/11/16 11:48:03;;;;;;;1.48;1.38;;;7.80;99.90;;;;;;5089203;28;20082;-73
2021/11/16 11:50:57;;;;;;;0.43;0.43;;;7.80;99.90;;;;;;5086968;28;20054;-76
2021/11/16 11:53:41;;;;;;;0.77;0.43;;;7.80;99.90;;;;;;5092876;28;20067;-75
2021/11/16 11:56:27;;;;;;;0.73;0.73;;;7.90;99.90;;;;;;5092623;28;20092;-70
2021/11/16 11:59:13;;;;;;;6.25;3.92;;;7.80;99.90;;;;;;5091757;28;20063;-73
2021/11/16 12:01:57;;;;;;;0.45;0.45;;;7.80;99.90;;;;;;5088789;28;20385;-72
2021/11/16 12:04:42;;;;;;;9.60;1.23;;;7.90;99.90;;;;;;5083720;28;20039;-73
2021/11/16 12:07:30;;;;;;;1.55;1.45;;;7.90;99.90;;;;;;5077886;28;20073;-73
2021/11/16 12:10:14;;;;;;;4.88;2.50;;;7.90;99.90;;;;;;5092707;28;20176;-72
2021/11/16 12:12:58;;;;;;;0.10;0.10;;;7.90;99.90;;;;;;5073893;28;20206;-73
2021/11/16 12:15:48;;;;;;;4.47;1.85;;;7.90;99.90;;;;;;5078548;28;20051;-73
2021/11/16 12:18:44;;;;;;;0.80;0.80;;;7.80;99.90;;;;;;5090433;28;20173;-72
2021/11/16 12:21:34;;;;;;;0.30;0.30;;;7.90;99.90;;;;;;5082698;28;20109;-72
2021/11/16 12:24:32;;;;;;;0.38;0.38;;;7.90;99.90;;;;;;5079971;28;20085;-73
2021/11/16 12:27:20;;;;;;;2.40;1.50;;;7.90;99.90;;;;;;5084478;28;20035;-74
2021/11/16 12:30:06;;;;;;;5.50;2.55;;;7.90;99.90;;;;;;5072777;28;20389;-74
2021/11/16 12:32:52;;;;;;;0.68;0.68;;;8.00;99.90;;;;;;5105064;28;20047;-74
2021/11/16 12:35:47;;;;;;;0.77;0.77;;;7.90;99.90;;;;;;5091408;28;20101;-72
2021/11/16 12:38:40;;;;;;;0.88;0.88;;;7.90;99.90;;;;;;5093417;28;20113;-73
2021/11/16 12:41:38;;;;;;;3.40;3.10;;;7.90;99.90;;;;;;5089784;28;20101;-72
2021/11/16 12:44:31;;;;;;;0.45;0.35;;;7.80;99.90;;;;;;5091817;28;20043;-72
2021/11/16 12:47:16;;;;;;;1.55;1.42;;;7.90;99.90;;;;;;5092070;28;20039;-72
2021/11/16 12:50:12;;;;;;;3.70;2.28;;;8.00;99.90;;;;;;5085125;28;20058;-73
2021/11/16 12:52:57;;;;;;;1.55;1.45;;;8.00;99.90;;;;;;5084067;28;20124;-72
2021/11/16 12:55:52;;;;;;;1.83;1.73;;;7.90;99.90;;;;;;5084374;28;20119;-73
2021/11/16 12:58:56;;;;;;;0.40;0.40;;;7.90;99.90;;;;;;5071504;28;20036;-73
2021/11/16 13:01:45;;;;;;;1.38;1.27;;;8.00;99.90;;;;;;5073665;28;20569;-73
2021/11/16 13:04:49;;;;;;;16.65;1.98;;;8.00;99.90;;;;;;5091412;28;20039;-74
2021/11/16 13:07:51;;;;;;;0.93;0.93;;;8.00;99.90;;;;;;5090763;28;20101;-73
2021/11/16 13:10:50;;;;;;;;;;;8.00;99.90;;;;;;5084154;28;20412;-73
2021/11/16 13:13:43;;;;;;;0.10;0.10;;;7.90;99.90;;;;;;5078503;28;20057;-73
2021/11/16 13:16:28;;;;;;;0.82;0.82;;;7.80;99.90;;;;;;5092114;28;20051;-73
2021/11/16 13:19:13;;;;;;;3.97;1.25;;;7.70;99.90;;;;;;5091984;28;20116;-73
2021/11/16 13:21:57;;;;;;;2.50;1.63;;;7.70;99.90;;;;;;5091093;28;20051;-73
2021/11/16 13:24:42;;;;;;;1.63;1.52;;;7.60;99.90;;;;;;5091997;28;20401;-73
2021/11/16 13:27:53;;;;;;;4.22;1.35;;;7.60;99.90;;;;;;5091159;28;20038;-73
2021/11/16 13:30:37;;;;;;;0.60;0.60;;;7.60;99.90;;;;;;5076735;28;20499;-73
2021/11/16 13:33:47;;;;;;;0.73;0.73;;;7.70;99.90;;;;;;5083670;28;20516;-72
2021/11/16 13:36:31;;;;;;;0.60;0.60;;;7.70;99.90;;;;;;5073242;28;20046;-73
2021/11/16 13:39:19;;;;;;;0.08;0.08;;;7.80;99.90;;;;;;5094037;28;20131;-70
2021/11/16 13:42:22;;;;;;;1.42;0.45;;;7.60;99.90;;;;;;5092031;28;20549;-73
2021/11/16 13:45:07;;;;;;;2.83;1.75;;;7.70;99.90;;;;;;5089948;28;20035;-72
2021/11/16 13:47:52;;;;;;;2.10;1.70;;;7.70;99.90;;;;;;5093515;28;20093;-70
2021/11/16 13:50:37;;;;;;;3.30;1.67;;;7.70;99.90;;;;;;5090415;28;20373;-70
2021/11/16 13:53:21;;;;;;;0.28;0.28;;;7.70;99.90;;;;;;5083878;28;20507;-71
2021/11/16 13:56:15;;;;;;;0.10;0.10;;;7.70;99.90;;;;;;5082984;28;20085;-68
2021/11/16 13:59:10;;;;;;;0.93;0.90;;;7.70;99.90;;;;;;5081788;28;20035;-70
2021/11/16 14:01:59;;;;;;;0.25;0.25;;;7.70;99.90;;;;;;5091656;28;20047;-73
2021/11/16 14:05:17;;;;;;;1.48;1.38;;;7.70;99.90;;;;;;5089021;28;20074;-74
2021/11/16 14:08:09;;;;;;;1.15;1.08;;;7.80;99.90;;;;;;5083028;28;20050;-75
2021/11/16 14:10:57;;;;;;;0.98;0.98;;;7.90;99.90;;;;;;5094553;28;20046;-74
2021/11/16 14:13:46;;;;;;;2.95;2.50;;;7.80;99.90;;;;;;5093971;28;20043;-74
2021/11/16 14:16:31;;;;;;;0.55;0.55;;;7.80;99.90;;;;;;5094556;28;20042;-74
2021/11/16 14:19:16;;;;;;;5.32;2.58;;;7.80;99.90;;;;;;5094636;28;20115;-74
2021/11/16 14:22:00;;;;;;;0.88;0.82;;;7.80;99.90;;;;;;5094254;28;20051;-73
2021/11/16 14:24:45;;;;;;;1.48;1.38;;;7.80;99.90;;;;;;5087406;28;20397;-73
2021/11/16 14:27:29;;;;;;;0.05;0.05;;;7.70;99.90;;;;;;5073157;28;20039;-74
2021/11/16 14:30:14;;;;;;;1.05;0.88;;;7.70;99.90;;;;;;5085512;28;20508;-74
2021/11/16 14:33:06;;;;;;;2.72;1.90;;;7.70;99.90;;;;;;5092630;28;20077;-74
2021/11/16 14:35:59;;;;;;;2.22;2.10;;;7.60;99.90;;;;;;5089932;28;20042;-74
2021/11/16 14:38:47;;;;;;;3.85;1.65;;;7.70;99.90;;;;;;5079588;28;20054;-74
2021/11/16 14:41:32;;;;;;;2.97;2.40;;;7.70;99.90;;;;;;5089193;28;20042;-74
2021/11/16 14:44:24;;;;;;;1.35;1.25;;;7.60;99.90;;;;;;5085999;28;20105;-74
2021/11/16 14:47:13;;;;;;;10.80;2.13;;;7.60;99.90;;;;;;5096608;28;20420;-75
2021/11/16 14:50:00;;;;;;;0.55;0.55;;;7.70;99.90;;;;;;5093782;28;20163;-74
2021/11/16 14:52:44;;;;;;;0.10;0.10;;;7.70;99.90;;;;;;5080632;28;20113;-73
2021/11/16 14:55:29;;;;;;;1.17;0.70;;;7.70;99.90;;;;;;5081433;28;20066;-74
2021/11/16 14:58:15;;;;;;;9.48;3.40;;;7.70;99.90;;;;;;5081308;28;20039;-74
2021/11/16 15:00:59;;;;;;;1.40;1.30;;;7.70;99.90;;;;;;5075893;28;20448;-74
2021/11/16 15:03:45;;;;;;;3.05;1.95;;;7.70;99.90;;;;;;5090116;28;20412;-74
2021/11/16 15:06:32;;;;;;;1.73;1.63;;;7.70;99.90;;;;;;5093637;28;20492;-74
2021/11/16 15:09:19;;;;;;;0.52;0.52;;;7.70;99.90;;;;;;5093081;28;20039;-74
2021/11/16 15:12:14;;;;;;;0.95;0.95;;;7.60;99.90;;;;;;5085001;28;20047;-74
2021/11/16 15:15:04;;;;;;;0.45;0.45;;;7.60;99.90;;;;;;5086053;28;20035;-74
2021/11/16 15:17:50;;;;;;;0.45;0.45;;;7.60;99.90;;;;;;5087713;28;20044;-74
2021/11/16 15:23:50;;;;;;;4.82;1.50;;;7.60;99.90;;;;;;5087545;28;20448;-74
2021/11/16 15:26:34;;;;;;;5.07;3.10;;;7.60;99.90;;;;;;5093003;28;20058;-74
2021/11/16 15:29:19;;;;;;;0.57;0.35;;;7.60;99.90;;;;;;5091903;28;20050;-73
2021/11/16 15:32:12;;;;;;;0.17;0.17;;;7.60;99.90;;;;;;5091549;28;20086;-74
2021/11/16 15:34:58;;;;;;;0.82;0.82;;;7.50;99.90;;;;;;5088529;28;20123;-74
2021/11/16 15:37:42;;;;;;;2.20;2.08;;;7.40;99.90;;;;;;5093313;28;20046;-70
2021/11/16 15:40:27;;;;;;;1.52;0.82;;;7.40;99.90;;;;;;5092615;28;20047;-70
2021/11/16 15:43:31;;;;;;;1.30;1.30;;;7.40;99.90;;;;;;5093041;28;20046;-69
2021/11/16 15:47:00;;;;;;;2.35;2.13;;;7.40;99.90;;;;;;5089774;28;20096;-70